createdAt,value
2023-04-26T00:00:29.462Z,72.06
2023-04-26T00:01:33.760Z,71.64
2023-04-26T00:02:36.442Z,71.27
2023-04-26T00:03:40.924Z,71.86
2023-04-26T00:04:44.308Z,71.45
2023-04-26T00:05:49.107Z,71.56
2023-04-26T00:06:52.479Z,71.73
2023-04-26T00:07:56.203Z,71.22
2023-04-26T00:08:59.447Z,71.27
2023-04-26T00:10:03.603Z,70.64
2023-04-26T00:11:08.061Z,70.87
2023-04-26T00:12:12.441Z,70.84
2023-04-26T00:13:15.106Z,71.05
2023-04-26T00:14:18.955Z,71.34
2023-04-26T00:15:22.227Z,71.80
2023-04-26T00:16:27.765Z,71.90
2023-04-26T00:17:32.083Z,72.30
2023-04-26T00:18:36.055Z,72.27
2023-04-26T00:19:40.071Z,72.50
2023-04-26T00:20:44.084Z,72.49
2023-04-26T00:21:46.890Z,72.44
2023-04-26T00:22:51.316Z,72.22
2023-04-26T00:23:54.121Z,71.86
2023-04-26T00:24:58.017Z,72.44
2023-04-26T00:26:00.969Z,72.46
2023-04-26T00:27:09.484Z,73.06
2023-04-26T00:28:12.555Z,72.82
2023-04-26T00:29:17.052Z,72.73
2023-04-26T00:30:22.989Z,72.52
2023-04-26T00:31:27.316Z,72.79
2023-04-26T00:32:31.660Z,72.17
2023-04-26T00:33:36.773Z,71.66
2023-04-26T00:34:41.697Z,72.19
2023-04-26T00:35:48.013Z,73.33
2023-04-26T00:36:51.500Z,73.27
2023-04-26T00:37:55.346Z,72.67
2023-04-26T00:38:58.212Z,72.89
2023-04-26T00:40:02.182Z,73.03
2023-04-26T00:41:05.774Z,72.94
2023-04-26T00:42:12.136Z,72.77
2023-04-26T00:43:14.989Z,72.82
2023-04-26T00:44:18.732Z,72.91
2023-04-26T00:45:21.706Z,72.29
2023-04-26T00:46:25.614Z,73.08
2023-04-26T00:47:31.288Z,72.46
2023-04-26T00:48:35.866Z,71.86
2023-04-26T00:49:38.558Z,71.79
2023-04-26T00:50:43.001Z,71.68
2023-04-26T00:51:46.073Z,71.74
2023-04-26T00:52:50.950Z,71.57
2023-04-26T00:53:54.019Z,71.93
2023-04-26T00:54:58.125Z,72.09
2023-04-26T00:56:01.546Z,71.12
2023-04-26T00:57:07.263Z,71.48
2023-04-26T00:58:11.571Z,71.32
2023-04-26T00:59:15.383Z,71.30
2023-04-26T01:00:19.008Z,70.73
2023-04-26T01:01:23.171Z,71.09
2023-04-26T01:02:26.973Z,71.41
2023-04-26T01:03:31.123Z,71.65
2023-04-26T01:04:34.267Z,71.21
2023-04-26T01:05:39.241Z,71.01
2023-04-26T01:06:42.752Z,70.73
2023-04-26T01:07:47.867Z,69.83
2023-04-26T01:08:53.396Z,69.90
2023-04-26T01:09:59.382Z,70.24
2023-04-26T01:11:02.422Z,70.33
2023-04-26T01:12:07.721Z,70.31
2023-04-26T01:13:12.137Z,70.22
2023-04-26T01:14:17.404Z,70.56
2023-04-26T01:15:21.196Z,71.43
2023-04-26T01:16:25.640Z,71.88
2023-04-26T01:17:28.565Z,71.64
2023-04-26T01:18:32.912Z,72.52
2023-04-26T01:19:37.830Z,72.71
2023-04-26T01:20:42.067Z,72.25
2023-04-26T01:21:44.789Z,71.81
2023-04-26T01:22:50.379Z,72.01
2023-04-26T01:23:53.461Z,72.65
2023-04-26T01:24:58.439Z,73.06
2023-04-26T01:26:01.593Z,72.96
2023-04-26T01:27:05.610Z,73.17
2023-04-26T01:28:08.347Z,73.24
2023-04-26T01:29:18.728Z,74.08
2023-04-26T01:30:21.480Z,72.79
2023-04-26T01:31:26.260Z,73.10
2023-04-26T01:32:30.687Z,72.77
2023-04-26T01:33:34.778Z,73.14
2023-04-26T01:34:39.060Z,73.40
2023-04-26T01:35:45.097Z,73.27
2023-04-26T01:36:50.891Z,73.79
2023-04-26T01:37:54.990Z,73.12
2023-04-26T01:38:59.110Z,73.65
2023-04-26T01:40:01.801Z,73.06
2023-04-26T01:41:05.713Z,73.62
2023-04-26T01:42:08.664Z,73.05
2023-04-26T01:43:12.745Z,73.69
2023-04-26T01:44:17.570Z,73.47
2023-04-26T01:45:21.389Z,73.33
2023-04-26T01:46:23.982Z,73.29
2023-04-26T01:47:28.411Z,72.59
2023-04-26T01:48:31.624Z,72.79
2023-04-26T01:49:35.405Z,73.72
2023-04-26T01:50:38.097Z,72.80
2023-04-26T01:51:41.881Z,73.88
2023-04-26T01:52:44.557Z,73.59
2023-04-26T01:53:50.230Z,72.81
2023-04-26T01:54:53.311Z,73.19
2023-04-26T01:55:57.161Z,72.56
2023-04-26T01:56:59.771Z,72.31
2023-04-26T01:58:03.890Z,72.59
2023-04-26T01:59:06.604Z,71.80
2023-04-26T02:00:11.790Z,72.52
2023-04-26T02:01:14.550Z,71.87
2023-04-26T02:02:20.083Z,71.74
2023-04-26T02:03:23.576Z,70.65
2023-04-26T02:04:27.652Z,70.94
2023-04-26T02:05:30.540Z,70.82
2023-04-26T02:06:34.536Z,70.49
2023-04-26T02:07:37.167Z,70.40
2023-04-26T02:08:41.118Z,70.17
2023-04-26T02:09:46.751Z,70.67
2023-04-26T02:10:50.607Z,70.86
2023-04-26T02:11:53.598Z,70.66
2023-04-26T02:12:57.584Z,70.40
2023-04-26T02:14:00.393Z,70.66
2023-04-26T02:15:05.118Z,71.26
2023-04-26T02:16:08.535Z,71.34
2023-04-26T02:17:12.395Z,71.52
2023-04-26T02:18:15.549Z,70.81
2023-04-26T02:19:19.384Z,71.19
2023-04-26T02:20:22.213Z,71.06
2023-04-26T02:21:27.230Z,71.39
2023-04-26T02:22:30.515Z,72.03
2023-04-26T02:23:34.456Z,72.37
2023-04-26T02:24:37.084Z,72.78
2023-04-26T02:25:42.856Z,71.87
2023-04-26T02:26:45.582Z,71.66
2023-04-26T02:27:50.074Z,71.43
2023-04-26T02:28:54.023Z,71.26
2023-04-26T02:29:58.661Z,71.03
2023-04-26T02:31:03.603Z,70.73
2023-04-26T02:32:08.131Z,70.92
2023-04-26T02:33:11.982Z,71.49
2023-04-26T02:34:17.197Z,71.87
2023-04-26T02:35:20.208Z,72.51
2023-04-26T02:36:24.208Z,72.68
2023-04-26T02:37:28.396Z,72.50
2023-04-26T02:38:32.182Z,72.15
2023-04-26T02:39:35.032Z,71.84
2023-04-26T02:40:38.625Z,71.51
2023-04-26T02:41:42.766Z,71.12
2023-04-26T02:42:46.916Z,71.09
2023-04-26T02:43:49.851Z,71.75
2023-04-26T02:44:53.850Z,71.40
2023-04-26T02:45:58.990Z,71.69
2023-04-26T02:47:03.007Z,70.88
2023-04-26T02:48:06.523Z,70.79
2023-04-26T02:49:10.320Z,70.30
2023-04-26T02:50:13.156Z,70.22
2023-04-26T02:51:17.299Z,71.97
2023-04-26T02:52:19.705Z,72.39
2023-04-26T02:53:23.285Z,71.71
2023-04-26T02:54:26.085Z,72.33
2023-04-26T02:55:30.094Z,72.21
2023-04-26T02:56:32.867Z,71.69
2023-04-26T02:57:38.183Z,71.89
2023-04-26T02:58:40.684Z,72.19
2023-04-26T02:59:44.588Z,72.23
2023-04-26T03:00:48.257Z,72.00
2023-04-26T03:01:52.648Z,71.65
2023-04-26T03:02:55.230Z,72.17
2023-04-26T03:03:58.811Z,73.07
2023-04-26T03:05:02.899Z,72.78
2023-04-26T03:06:11.324Z,73.47
2023-04-26T03:07:14.422Z,73.98
2023-04-26T03:08:18.094Z,73.24
2023-04-26T03:09:20.777Z,73.56
2023-04-26T03:10:24.675Z,73.65
2023-04-26T03:11:27.800Z,73.70
2023-04-26T03:12:31.975Z,73.66
2023-04-26T03:13:36.021Z,73.81
2023-04-26T03:14:39.815Z,73.40
2023-04-26T03:15:46.566Z,73.48
2023-04-26T03:16:50.726Z,73.66
2023-04-26T03:17:55.202Z,73.10
2023-04-26T03:18:59.152Z,73.08
2023-04-26T03:20:03.149Z,73.89
2023-04-26T03:21:07.098Z,74.17
2023-04-26T03:22:11.565Z,73.88
2023-04-26T03:23:15.733Z,73.63
2023-04-26T03:24:19.180Z,73.86
2023-04-26T03:25:23.263Z,74.29
2023-04-26T03:26:25.850Z,74.45
2023-04-26T03:27:30.058Z,74.21
2023-04-26T03:28:32.700Z,73.91
2023-04-26T03:29:37.994Z,73.80
2023-04-26T03:30:40.686Z,74.60
2023-04-26T03:31:44.647Z,74.59
2023-04-26T03:32:47.476Z,74.20
2023-04-26T03:33:51.984Z,74.47
2023-04-26T03:34:54.450Z,74.20
2023-04-26T03:36:00.135Z,74.13
2023-04-26T03:37:04.895Z,75.01
2023-04-26T03:38:07.479Z,75.15
2023-04-26T03:39:11.864Z,74.99
2023-04-26T03:40:15.177Z,75.57
2023-04-26T03:41:19.592Z,75.52
2023-04-26T03:42:22.658Z,75.47
2023-04-26T03:43:26.574Z,75.38
2023-04-26T03:44:31.064Z,75.80
2023-04-26T03:45:36.974Z,75.42
2023-04-26T03:46:45.319Z,74.85
2023-04-26T03:47:49.145Z,74.95
2023-04-26T03:48:52.196Z,75.17
2023-04-26T03:49:56.547Z,74.42
2023-04-26T03:50:59.479Z,74.31
2023-04-26T03:52:04.571Z,74.25
2023-04-26T03:53:07.735Z,73.79
2023-04-26T03:54:12.042Z,73.82
2023-04-26T03:55:14.937Z,73.94
2023-04-26T03:56:18.633Z,74.61
2023-04-26T03:57:21.280Z,74.26
2023-04-26T03:58:26.202Z,74.44
2023-04-26T03:59:28.764Z,74.25
2023-04-26T04:00:32.759Z,74.58
2023-04-26T04:01:36.936Z,74.71
2023-04-26T04:02:41.015Z,74.12
2023-04-26T04:03:43.914Z,74.17
2023-04-26T04:04:47.857Z,73.79
2023-04-26T04:05:50.628Z,72.66
2023-04-26T04:06:54.325Z,73.12
2023-04-26T04:07:56.987Z,73.94
2023-04-26T04:09:01.219Z,73.63
2023-04-26T04:10:04.391Z,73.08
2023-04-26T04:11:08.129Z,72.89
2023-04-26T04:12:11.045Z,73.03
2023-04-26T04:13:14.981Z,72.40
2023-04-26T04:14:18.743Z,72.96
2023-04-26T04:15:23.144Z,72.55
2023-04-26T04:16:26.458Z,72.09
2023-04-26T04:17:32.134Z,72.51
2023-04-26T04:18:36.941Z,71.98
2023-04-26T04:19:40.125Z,71.44
2023-04-26T04:20:44.289Z,71.85
2023-04-26T04:21:46.985Z,71.83
2023-04-26T04:22:51.519Z,72.02
2023-04-26T04:23:54.911Z,72.00
2023-04-26T04:25:00.164Z,71.60
2023-04-26T04:26:03.577Z,71.40
2023-04-26T04:27:07.817Z,71.54
2023-04-26T04:28:11.509Z,71.41
2023-04-26T04:29:16.276Z,71.20
2023-04-26T04:30:19.270Z,71.53
2023-04-26T04:31:23.400Z,70.94
2023-04-26T04:32:26.209Z,71.27
2023-04-26T04:33:32.929Z,70.79
2023-04-26T04:34:36.580Z,70.89
2023-04-26T04:35:42.535Z,70.00
2023-04-26T04:36:45.048Z,70.70
2023-04-26T04:37:50.330Z,71.11
2023-04-26T04:38:54.012Z,71.55
2023-04-26T04:39:58.679Z,70.89
2023-04-26T04:41:02.082Z,69.92
2023-04-26T04:42:06.048Z,70.11
2023-04-26T04:43:09.346Z,70.30
2023-04-26T04:44:13.593Z,71.00
2023-04-26T04:45:16.492Z,72.00
2023-04-26T04:46:20.382Z,71.52
2023-04-26T04:47:23.170Z,71.09
2023-04-26T04:48:26.965Z,70.96
2023-04-26T04:49:31.975Z,70.71
2023-04-26T04:50:36.146Z,70.50
2023-04-26T04:51:39.215Z,71.76
2023-04-26T04:52:43.067Z,71.54
2023-04-26T04:53:45.943Z,71.39
2023-04-26T04:54:49.841Z,72.23
2023-04-26T04:55:52.852Z,71.17
2023-04-26T04:56:57.634Z,71.83
2023-04-26T04:58:00.179Z,72.34
2023-04-26T04:59:04.407Z,72.14
2023-04-26T05:00:10.668Z,73.12
2023-04-26T05:01:15.219Z,73.81
2023-04-26T05:02:18.104Z,73.44
2023-04-26T05:03:22.492Z,73.95
2023-04-26T05:04:25.715Z,73.70
2023-04-26T05:05:31.120Z,74.30
2023-04-26T05:06:34.006Z,74.31
2023-04-26T05:07:38.456Z,74.75
2023-04-26T05:08:41.193Z,74.52
2023-04-26T05:09:45.291Z,74.50
2023-04-26T05:10:48.450Z,75.25
2023-04-26T05:11:52.659Z,75.12
2023-04-26T05:12:55.911Z,74.96
2023-04-26T05:14:00.048Z,76.28
2023-04-26T05:15:02.898Z,75.44
2023-04-26T05:16:07.417Z,76.11
2023-04-26T05:17:10.611Z,75.73
2023-04-26T05:18:14.514Z,75.91
2023-04-26T05:19:17.762Z,75.55
2023-04-26T05:20:21.663Z,75.88
2023-04-26T05:21:26.623Z,76.04
2023-04-26T05:22:30.669Z,76.51
2023-04-26T05:23:34.629Z,76.33
2023-04-26T05:24:39.082Z,76.26
2023-04-26T05:25:41.594Z,76.71
2023-04-26T05:26:45.461Z,76.48
2023-04-26T05:27:48.154Z,76.57
2023-04-26T05:28:51.900Z,76.73
2023-04-26T05:29:54.603Z,77.23
2023-04-26T05:30:58.446Z,76.80
2023-04-26T05:32:01.460Z,76.65
2023-04-26T05:33:05.141Z,75.92
2023-04-26T05:34:08.144Z,75.95
2023-04-26T05:35:11.920Z,76.21
2023-04-26T05:36:14.328Z,75.96
2023-04-26T05:37:19.625Z,76.08
2023-04-26T05:38:22.344Z,75.17
2023-04-26T05:39:26.528Z,75.52
2023-04-26T05:40:29.404Z,75.08
2023-04-26T05:41:33.559Z,75.31
2023-04-26T05:42:36.244Z,74.75
2023-04-26T05:43:40.591Z,74.51
2023-04-26T05:44:43.446Z,74.51
2023-04-26T05:45:53.836Z,74.94
2023-04-26T05:46:56.794Z,74.69
2023-04-26T05:48:01.476Z,74.38
2023-04-26T05:49:04.187Z,74.90
2023-04-26T05:50:09.719Z,74.77
2023-04-26T05:51:12.489Z,74.90
2023-04-26T05:52:17.975Z,75.47
2023-04-26T05:53:22.903Z,74.80
2023-04-26T05:54:27.115Z,74.32
2023-04-26T05:55:30.112Z,74.24
2023-04-26T05:56:33.876Z,73.97
2023-04-26T05:57:36.397Z,74.39
2023-04-26T05:58:40.274Z,74.11
2023-04-26T05:59:43.266Z,74.66
2023-04-26T06:00:48.073Z,75.00
2023-04-26T06:01:50.963Z,74.74
2023-04-26T06:02:55.085Z,74.21
2023-04-26T06:04:00.231Z,73.45
2023-04-26T06:05:07.354Z,72.57
2023-04-26T06:06:11.637Z,71.84
2023-04-26T06:07:16.384Z,72.34
2023-04-26T06:08:20.344Z,71.99
2023-04-26T06:09:26.719Z,73.18
2023-04-26T06:10:29.453Z,72.79
2023-04-26T06:11:33.367Z,73.71
2023-04-26T06:12:36.199Z,73.99
2023-04-26T06:13:39.812Z,75.20
2023-04-26T06:14:42.590Z,75.53
2023-04-26T06:15:47.652Z,75.53
2023-04-26T06:16:50.761Z,75.51
2023-04-26T06:17:54.865Z,75.48
2023-04-26T06:18:57.931Z,75.61
2023-04-26T06:20:02.137Z,75.35
2023-04-26T06:21:06.974Z,74.85
2023-04-26T06:22:09.719Z,75.04
2023-04-26T06:23:13.263Z,74.56
2023-04-26T06:24:17.270Z,74.42
2023-04-26T06:25:21.455Z,74.45
2023-04-26T06:26:25.061Z,74.17
2023-04-26T06:27:27.781Z,74.07
2023-04-26T06:28:31.743Z,74.38
2023-04-26T06:29:34.524Z,74.11
2023-04-26T06:30:38.649Z,74.31
2023-04-26T06:31:42.246Z,74.81
2023-04-26T06:32:44.844Z,75.48
2023-04-26T06:33:49.009Z,75.53
2023-04-26T06:34:51.706Z,75.77
2023-04-26T06:35:55.841Z,76.05
2023-04-26T06:36:59.046Z,75.32
2023-04-26T06:38:02.836Z,75.72
2023-04-26T06:39:06.418Z,74.32
2023-04-26T06:40:09.792Z,74.07
2023-04-26T06:41:14.937Z,72.72
2023-04-26T06:42:17.956Z,72.93
2023-04-26T06:43:21.605Z,72.09
2023-04-26T06:44:25.659Z,72.91
2023-04-26T06:45:28.644Z,73.58
2023-04-26T06:46:32.516Z,74.07
2023-04-26T06:47:35.151Z,73.80
2023-04-26T06:48:38.947Z,73.56
2023-04-26T06:49:42.480Z,73.44
2023-04-26T06:50:46.472Z,74.29
2023-04-26T06:51:49.524Z,74.21
2023-04-26T06:52:53.665Z,74.82
2023-04-26T06:53:59.143Z,74.00
2023-04-26T06:55:03.871Z,72.88
2023-04-26T06:56:08.085Z,73.37
2023-04-26T06:57:12.273Z,73.57
2023-04-26T06:58:15.932Z,73.08
2023-04-26T06:59:18.538Z,73.35
2023-04-26T07:00:22.904Z,74.19
2023-04-26T07:01:26.846Z,73.56
2023-04-26T07:02:31.158Z,73.25
2023-04-26T07:03:35.126Z,74.15
2023-04-26T07:04:39.443Z,73.89
2023-04-26T07:05:43.300Z,74.22
2023-04-26T07:06:46.290Z,74.07
2023-04-26T07:07:50.465Z,73.63
2023-04-26T07:08:54.681Z,73.92
2023-04-26T07:09:58.878Z,74.88
2023-04-26T07:11:02.950Z,74.69
2023-04-26T07:12:06.116Z,73.52
2023-04-26T07:13:11.236Z,74.54
2023-04-26T07:14:13.910Z,73.51
2023-04-26T07:15:17.629Z,73.84
2023-04-26T07:16:21.319Z,72.76
2023-04-26T07:17:24.955Z,72.39
2023-04-26T07:18:28.898Z,71.97
2023-04-26T07:19:31.629Z,71.65
2023-04-26T07:20:35.674Z,71.39
2023-04-26T07:21:39.366Z,69.91
2023-04-26T07:22:43.164Z,68.48
2023-04-26T07:23:46.279Z,68.89
2023-04-26T07:24:50.712Z,67.99
2023-04-26T07:25:54.087Z,67.31
2023-04-26T07:26:58.760Z,66.75
2023-04-26T07:28:02.866Z,65.80
2023-04-26T07:29:07.060Z,65.42
2023-04-26T07:30:11.992Z,65.69
2023-04-26T07:31:16.068Z,66.04
2023-04-26T07:32:20.203Z,65.58
2023-04-26T07:33:23.185Z,64.34
2023-04-26T07:34:27.154Z,63.67
2023-04-26T07:35:31.338Z,63.15
2023-04-26T07:36:34.256Z,61.69
2023-04-26T07:37:37.913Z,61.91
2023-04-26T07:38:40.609Z,60.72
2023-04-26T07:39:44.485Z,60.77
2023-04-26T07:40:47.047Z,60.23
2023-04-26T07:41:50.528Z,60.51
2023-04-26T07:42:54.228Z,59.72
2023-04-26T07:43:58.312Z,59.58
2023-04-26T07:45:03.947Z,59.09
2023-04-26T07:46:07.757Z,58.09
2023-04-26T07:47:13.913Z,57.73
2023-04-26T07:48:17.390Z,56.20
2023-04-26T07:49:20.941Z,56.75
2023-04-26T07:50:26.065Z,57.58
2023-04-26T07:51:28.874Z,56.47
2023-04-26T07:52:32.777Z,56.86
2023-04-26T07:53:35.771Z,56.05
2023-04-26T07:54:40.577Z,56.28
2023-04-26T07:55:43.396Z,56.31
2023-04-26T07:56:47.377Z,56.16
2023-04-26T07:57:51.035Z,56.93
2023-04-26T07:58:54.841Z,56.31
2023-04-26T07:59:58.732Z,55.78
2023-04-26T08:01:04.188Z,57.60
2023-04-26T08:02:07.416Z,57.46
2023-04-26T08:03:12.739Z,58.24
2023-04-26T08:04:17.155Z,58.42
2023-04-26T08:05:21.387Z,58.78
2023-04-26T08:06:25.320Z,58.54
2023-04-26T08:07:28.319Z,58.74
2023-04-26T08:08:33.661Z,58.43
2023-04-26T08:09:36.620Z,58.31
2023-04-26T08:10:43.077Z,58.81
2023-04-26T08:11:47.013Z,59.11
2023-04-26T08:12:49.703Z,58.74
2023-04-26T08:13:53.877Z,59.92
2023-04-26T08:14:56.784Z,60.40
2023-04-26T08:16:00.396Z,60.28
2023-04-26T08:17:04.647Z,61.38
2023-04-26T08:18:08.951Z,61.98
2023-04-26T08:19:11.902Z,61.48
2023-04-26T08:20:15.708Z,61.93
2023-04-26T08:21:18.372Z,61.43
2023-04-26T08:22:22.384Z,60.72
2023-04-26T08:23:25.538Z,61.37
2023-04-26T08:24:29.306Z,61.62
2023-04-26T08:25:31.920Z,62.22
2023-04-26T08:26:35.544Z,61.50
2023-04-26T08:27:38.595Z,61.38
2023-04-26T08:28:42.649Z,61.85
2023-04-26T08:29:45.478Z,62.10
2023-04-26T08:30:49.474Z,63.48
2023-04-26T08:31:52.229Z,63.11
2023-04-26T08:32:58.320Z,62.69
2023-04-26T08:34:00.913Z,62.21
2023-04-26T08:35:06.038Z,62.84
2023-04-26T08:36:08.957Z,62.67
2023-04-26T08:37:13.211Z,62.22
2023-04-26T08:38:17.621Z,60.92
2023-04-26T08:39:20.644Z,61.13
2023-04-26T08:40:26.243Z,60.42
2023-04-26T08:41:31.818Z,60.97
2023-04-26T08:42:39.974Z,61.79
2023-04-26T08:43:45.188Z,61.87
2023-04-26T08:44:49.345Z,61.38
2023-04-26T08:45:53.801Z,61.94
2023-04-26T08:47:03.988Z,62.13
2023-04-26T08:48:15.100Z,62.10
2023-04-26T08:49:32.415Z,61.69
2023-04-26T08:50:38.140Z,62.79
2023-04-26T08:51:40.880Z,62.70
2023-04-26T08:52:45.923Z,61.97
2023-04-26T08:53:53.487Z,62.19
2023-04-26T08:54:58.750Z,61.92
2023-04-26T08:56:03.811Z,62.33
2023-04-26T08:57:07.769Z,62.36
2023-04-26T08:58:13.150Z,61.15
2023-04-26T08:59:17.365Z,60.85
2023-04-26T09:00:21.514Z,60.68
2023-04-26T09:01:27.432Z,60.88
2023-04-26T09:02:30.563Z,61.44
2023-04-26T09:03:36.823Z,60.86
2023-04-26T09:04:40.865Z,59.80
2023-04-26T09:05:45.872Z,59.34
2023-04-26T09:06:51.406Z,59.59
2023-04-26T09:07:59.199Z,60.04
2023-04-26T09:09:05.144Z,59.71
2023-04-26T09:10:10.901Z,60.47
2023-04-26T09:11:15.112Z,59.72
2023-04-26T09:12:20.473Z,60.51
2023-04-26T09:13:30.698Z,60.25
2023-04-26T09:14:33.441Z,62.07
2023-04-26T09:15:37.228Z,61.35
2023-04-26T09:16:40.006Z,62.24
2023-04-26T09:17:44.542Z,62.21
2023-04-26T09:18:53.114Z,63.21
2023-04-26T09:19:57.026Z,63.18
2023-04-26T09:21:04.669Z,64.79
2023-04-26T09:22:09.393Z,64.75
2023-04-26T09:23:12.584Z,64.98
2023-04-26T09:24:16.255Z,65.87
2023-04-26T09:25:28.058Z,65.13
2023-04-26T09:26:34.012Z,64.33
2023-04-26T09:27:46.868Z,62.91
2023-04-26T09:28:51.312Z,62.54
2023-04-26T09:30:00.004Z,62.61
2023-04-26T09:31:03.815Z,61.48
2023-04-26T09:32:10.389Z,60.81
2023-04-26T09:33:14.446Z,61.11
2023-04-26T09:34:20.368Z,61.96
2023-04-26T09:35:27.191Z,61.02
2023-04-26T09:36:32.501Z,60.42
2023-04-26T09:37:39.081Z,60.29
2023-04-26T09:38:51.671Z,59.91
2023-04-26T09:39:55.766Z,61.73
2023-04-26T09:41:02.429Z,62.02
2023-04-26T09:42:06.242Z,62.79
2023-04-26T09:43:11.846Z,62.67
2023-04-26T09:44:26.289Z,62.74
2023-04-26T09:45:31.856Z,63.35
2023-04-26T09:46:35.649Z,63.87
2023-04-26T09:47:38.589Z,65.05
2023-04-26T09:48:42.498Z,65.74
2023-04-26T09:49:52.124Z,66.79
2023-04-26T09:50:58.108Z,67.69
2023-04-26T09:52:04.926Z,67.70
2023-04-26T09:53:18.590Z,68.45
2023-04-26T09:54:40.446Z,68.69
2023-04-26T09:55:46.634Z,68.84
2023-04-26T09:57:01.510Z,69.53
2023-04-26T09:58:10.962Z,69.56
2023-04-26T09:59:14.399Z,69.99
2023-04-26T10:00:19.562Z,70.36
2023-04-26T10:01:23.754Z,70.87
2023-04-26T10:02:30.484Z,70.57
2023-04-26T10:03:36.546Z,70.45
2023-04-26T10:04:40.112Z,70.92
2023-04-26T10:05:45.685Z,71.45
2023-04-26T10:06:48.271Z,70.92
2023-04-26T10:07:52.446Z,70.85
2023-04-26T10:08:57.263Z,70.99
2023-04-26T10:09:59.965Z,71.23
2023-04-26T10:11:07.710Z,70.50
2023-04-26T10:12:12.187Z,69.53
2023-04-26T10:13:18.453Z,68.52
2023-04-26T10:14:21.404Z,68.02
2023-04-26T10:15:25.604Z,66.43
2023-04-26T10:16:30.198Z,65.17
2023-04-26T10:17:33.320Z,64.70
2023-04-26T10:18:38.306Z,64.59
2023-04-26T10:19:44.326Z,64.08
2023-04-26T10:20:55.219Z,65.45
2023-04-26T10:22:02.493Z,66.01
2023-04-26T10:23:15.472Z,66.69
2023-04-26T10:24:20.128Z,66.43
2023-04-26T10:25:38.420Z,67.16
2023-04-26T10:26:48.787Z,67.55
2023-04-26T10:27:53.583Z,67.32
2023-04-26T10:29:02.084Z,68.29
2023-04-26T10:30:10.777Z,67.54
2023-04-26T10:31:14.333Z,66.66
2023-04-26T10:32:18.710Z,66.93
2023-04-26T10:33:23.802Z,66.58
2023-04-26T10:34:26.811Z,66.00
2023-04-26T10:35:31.318Z,66.74
2023-04-26T10:37:10.117Z,65.88
2023-04-26T10:38:14.463Z,65.31
2023-04-26T10:39:22.365Z,64.40
2023-04-26T10:40:26.745Z,64.55
2023-04-26T10:41:32.816Z,64.17
2023-04-26T10:42:36.695Z,64.58
2023-04-26T10:43:43.055Z,65.28
2023-04-26T10:44:46.708Z,65.84
2023-04-26T10:45:50.562Z,65.66
2023-04-26T10:46:54.316Z,65.90
2023-04-26T10:48:17.700Z,65.44
2023-04-26T10:49:24.940Z,65.44
2023-04-26T10:50:30.604Z,64.65
2023-04-26T10:51:33.066Z,63.79
2023-04-26T10:52:38.577Z,63.57
2023-04-26T10:54:00.879Z,63.23
2023-04-26T10:55:06.510Z,64.02
2023-04-26T10:56:09.042Z,64.69
2023-04-26T10:57:12.606Z,65.23
2023-04-26T10:58:29.372Z,65.93
2023-04-26T10:59:43.469Z,66.67
2023-04-26T11:01:05.843Z,66.81
2023-04-26T11:02:11.343Z,67.59
2023-04-26T11:03:15.708Z,66.51
2023-04-26T11:04:18.818Z,66.16
2023-04-26T11:05:43.604Z,64.44
2023-04-26T11:06:51.911Z,64.79
2023-04-26T11:08:06.617Z,65.72
2023-04-26T11:09:34.519Z,64.32
2023-04-26T11:10:40.143Z,65.37
2023-04-26T11:11:53.572Z,65.81
2023-04-26T11:13:03.575Z,65.29
2023-04-26T11:14:07.586Z,65.64
2023-04-26T11:15:13.574Z,66.42
2023-04-26T11:16:18.840Z,66.73
2023-04-26T11:17:21.393Z,66.21
2023-04-26T11:18:25.229Z,66.03
2023-04-26T11:19:29.205Z,65.30
2023-04-26T11:20:32.608Z,65.32
2023-04-26T11:21:37.987Z,65.28
2023-04-26T11:22:42.129Z,65.47
2023-04-26T11:23:55.443Z,65.69
2023-04-26T11:25:00.642Z,65.33
2023-04-26T11:26:05.427Z,64.79
2023-04-26T11:27:09.554Z,64.78
2023-04-26T11:28:13.621Z,65.26
2023-04-26T11:29:20.429Z,65.12
2023-04-26T11:30:24.038Z,64.97
2023-04-26T11:31:27.904Z,65.28
2023-04-26T11:32:30.336Z,65.72
2023-04-26T11:33:34.518Z,65.78
2023-04-26T11:34:39.324Z,65.75
2023-04-26T11:35:43.712Z,65.43
2023-04-26T11:36:46.998Z,65.17
2023-04-26T11:37:52.480Z,65.43
2023-04-26T11:38:58.874Z,64.28
2023-04-26T11:40:01.262Z,63.66
2023-04-26T11:41:05.770Z,63.74
2023-04-26T11:42:09.214Z,63.20
2023-04-26T11:43:13.910Z,64.53
2023-04-26T11:44:21.101Z,64.54
2023-04-26T11:45:24.018Z,63.10
2023-04-26T11:46:28.016Z,63.75
2023-04-26T11:47:31.577Z,62.69
2023-04-26T11:48:37.133Z,62.88
2023-04-26T11:49:39.913Z,61.62
2023-04-26T11:50:43.818Z,60.77
2023-04-26T11:51:50.682Z,60.38
2023-04-26T11:52:57.109Z,60.63
2023-04-26T11:54:01.815Z,61.07
2023-04-26T11:55:08.270Z,60.24
2023-04-26T11:56:18.689Z,60.83
2023-04-26T11:57:22.025Z,61.43
2023-04-26T11:58:25.945Z,60.52
2023-04-26T11:59:29.962Z,60.59
2023-04-26T12:00:33.904Z,60.77
2023-04-26T12:01:36.403Z,60.82
2023-04-26T12:02:40.042Z,60.29
2023-04-26T12:03:44.002Z,61.51
2023-04-26T12:04:48.080Z,61.45
2023-04-26T12:05:56.600Z,61.14
2023-04-26T12:07:00.449Z,62.61
2023-04-26T12:08:04.897Z,61.92
2023-04-26T12:09:10.168Z,61.69
2023-04-26T12:10:17.517Z,61.31
2023-04-26T12:11:21.438Z,60.36
2023-04-26T12:12:24.834Z,59.71
2023-04-26T12:13:28.230Z,61.20
2023-04-26T12:14:34.260Z,60.15
2023-04-26T12:15:37.935Z,60.30
2023-04-26T12:16:44.501Z,59.67
2023-04-26T12:17:54.347Z,60.62
2023-04-26T12:18:58.024Z,61.62
2023-04-26T12:20:00.864Z,62.33
2023-04-26T12:21:04.402Z,62.02
2023-04-26T12:22:09.677Z,62.78
2023-04-26T12:23:14.767Z,63.26
2023-04-26T12:24:27.141Z,63.14
2023-04-26T12:25:29.713Z,63.07
2023-04-26T12:26:44.912Z,63.57
2023-04-26T12:27:48.262Z,63.89
2023-04-26T12:28:51.853Z,64.77
2023-04-26T12:29:54.622Z,65.00
2023-04-26T12:30:58.546Z,64.73
2023-04-26T12:32:03.587Z,64.66
2023-04-26T12:33:16.376Z,64.17
2023-04-26T12:34:21.583Z,64.15
2023-04-26T12:35:25.178Z,64.99
2023-04-26T12:36:29.040Z,65.48
2023-04-26T12:37:32.013Z,65.15
2023-04-26T12:38:35.592Z,64.22
2023-04-26T12:39:41.018Z,64.81
2023-04-26T12:40:46.172Z,64.73
2023-04-26T12:41:50.187Z,65.22
2023-04-26T12:42:56.211Z,64.28
2023-04-26T12:43:59.851Z,63.33
2023-04-26T12:45:02.572Z,63.94
2023-04-26T12:46:06.319Z,64.65
2023-04-26T12:47:08.872Z,64.95
2023-04-26T12:48:12.967Z,66.01
2023-04-26T12:49:17.075Z,66.15
2023-04-26T12:50:19.550Z,66.04
2023-04-26T12:51:23.197Z,64.99
2023-04-26T12:52:26.625Z,64.77
2023-04-26T12:53:30.842Z,64.35
2023-04-26T12:54:34.370Z,64.08
2023-04-26T12:55:40.134Z,63.78
2023-04-26T12:56:45.608Z,63.70
2023-04-26T12:57:49.810Z,62.73
2023-04-26T12:58:54.345Z,62.32
2023-04-26T12:59:56.886Z,61.92
2023-04-26T13:01:00.627Z,62.02
2023-04-26T13:02:03.898Z,62.42
2023-04-26T13:03:07.818Z,63.71
2023-04-26T13:04:11.235Z,63.55
2023-04-26T13:05:15.000Z,63.79
2023-04-26T13:06:18.698Z,63.50
2023-04-26T13:07:22.179Z,63.17
2023-04-26T13:08:26.110Z,63.18
2023-04-26T13:09:28.795Z,62.81
2023-04-26T13:10:33.144Z,63.41
2023-04-26T13:11:38.105Z,64.16
2023-04-26T13:12:41.744Z,64.11
2023-04-26T13:13:44.891Z,63.65
2023-04-26T13:14:48.889Z,63.71
2023-04-26T13:15:52.734Z,64.50
2023-04-26T13:16:55.784Z,64.43
2023-04-26T13:17:59.410Z,64.56
2023-04-26T13:19:01.836Z,62.84
2023-04-26T13:20:07.201Z,61.98
2023-04-26T13:21:10.231Z,61.46
2023-04-26T13:22:14.345Z,60.57
2023-04-26T13:23:18.237Z,59.49
2023-04-26T13:24:21.902Z,60.30
2023-04-26T13:25:26.152Z,60.47
2023-04-26T13:26:28.619Z,60.17
2023-04-26T13:27:33.937Z,60.26
2023-04-26T13:28:37.335Z,61.59
2023-04-26T13:29:41.206Z,61.97
2023-04-26T13:30:43.943Z,62.42
2023-04-26T13:31:47.465Z,62.45
2023-04-26T13:32:51.605Z,63.60
2023-04-26T13:33:53.977Z,62.79
2023-04-26T13:34:57.696Z,63.13
2023-04-26T13:36:00.219Z,63.20
2023-04-26T13:37:04.201Z,63.16
2023-04-26T13:38:07.796Z,63.06
2023-04-26T13:39:12.078Z,62.78
2023-04-26T13:40:16.105Z,62.38
2023-04-26T13:41:18.722Z,61.99
2023-04-26T13:42:22.309Z,63.02
2023-04-26T13:43:27.439Z,63.11
2023-04-26T13:44:31.639Z,62.12
2023-04-26T13:45:36.196Z,61.54
2023-04-26T13:46:40.052Z,62.22
2023-04-26T13:47:43.893Z,62.21
2023-04-26T13:48:46.639Z,62.15
2023-04-26T13:49:51.425Z,62.86
2023-04-26T13:50:56.984Z,63.91
2023-04-26T13:52:01.184Z,64.06